createdAt,value
2019-01-08T00:00:52.384Z,28.27
2019-01-08T00:06:30.571Z,27.53
2019-01-08T00:11:35.687Z,25.67
2019-01-08T00:16:40.729Z,24.17
2019-01-08T00:21:45.783Z,25.67
2019-01-08T00:26:50.869Z,29.80
2019-01-08T00:31:55.963Z,27.93
2019-01-08T00:37:01.007Z,28.33
2019-01-08T00:42:07.488Z,28.00
2019-01-08T00:47:12.805Z,26.43
2019-01-08T00:52:17.998Z,25.63
2019-01-08T00:57:23.159Z,29.47
2019-01-08T01:02:28.209Z,27.60
2019-01-08T01:07:33.316Z,24.03
2019-01-08T01:12:38.306Z,20.90
2019-01-08T01:17:43.792Z,21.83
2019-01-08T01:22:48.884Z,26.47
2019-01-08T01:27:53.978Z,24.73
2019-01-08T01:32:59.081Z,26.67
2019-01-08T01:38:04.194Z,24.70
2019-01-08T01:43:09.486Z,23.93
2019-01-08T01:48:14.667Z,26.30
2019-01-08T01:53:22.785Z,25.70
2019-01-08T01:58:28.222Z,26.53
2019-01-08T02:03:33.266Z,32.90
2019-01-08T02:08:38.300Z,33.07
2019-01-08T02:13:43.299Z,29.20
2019-01-08T02:18:48.299Z,27.00
2019-01-08T02:23:53.717Z,24.77
2019-01-08T02:28:58.869Z,24.37
2019-01-08T02:34:03.995Z,25.17
2019-01-08T02:39:09.034Z,24.53
2019-01-08T02:44:14.023Z,24.77
2019-01-08T02:49:37.070Z,23.03
2019-01-08T02:54:57.393Z,24.57
2019-01-08T03:00:02.771Z,27.73
2019-01-08T03:05:07.851Z,22.67
2019-01-08T03:10:13.526Z,27.80
2019-01-08T03:15:18.529Z,32.07
2019-01-08T03:20:23.518Z,30.70
2019-01-08T03:25:28.570Z,32.53
2019-01-08T03:30:33.594Z,29.30
2019-01-08T03:35:38.677Z,32.37
2019-01-08T03:40:43.762Z,29.37
2019-01-08T03:45:48.846Z,35.53
2019-01-08T03:50:53.913Z,27.93
2019-01-08T03:55:59.456Z,29.40
2019-01-08T04:01:04.888Z,29.70
2019-01-08T04:06:09.942Z,29.93
2019-01-08T04:11:14.972Z,27.80
2019-01-08T04:16:20.046Z,24.23
2019-01-08T04:21:25.133Z,29.13
2019-01-08T04:26:30.207Z,31.77
2019-01-08T04:31:35.498Z,30.00
2019-01-08T04:36:41.274Z,30.00
2019-01-08T04:41:46.392Z,26.20
2019-01-08T04:46:56.836Z,29.20
2019-01-08T04:52:02.014Z,27.53
2019-01-08T04:57:09.532Z,27.17
2019-01-08T05:02:14.578Z,27.50
2019-01-08T05:07:19.774Z,34.10
2019-01-08T05:12:24.897Z,27.03
2019-01-08T05:17:30.337Z,26.60
2019-01-08T05:22:35.765Z,30.27
2019-01-08T05:27:40.811Z,34.20
2019-01-08T05:32:45.994Z,28.17
2019-01-08T05:37:51.147Z,29.00
2019-01-08T05:42:56.908Z,30.87
2019-01-08T05:48:03.449Z,30.20
2019-01-08T05:53:08.638Z,28.83
2019-01-08T05:58:14.525Z,26.87
2019-01-08T06:03:19.682Z,24.80
2019-01-08T06:08:24.927Z,24.13
2019-01-08T06:13:30.733Z,26.17
2019-01-08T06:18:36.088Z,27.33
2019-01-08T06:23:41.323Z,29.43
2019-01-08T06:28:46.611Z,30.63
2019-01-08T06:33:51.674Z,27.47
2019-01-08T06:38:56.816Z,29.27
2019-01-08T06:44:21.059Z,33.67
2019-01-08T06:49:26.110Z,29.13
2019-01-08T06:54:32.804Z,24.97
2019-01-08T06:59:38.446Z,27.30
2019-01-08T07:04:44.529Z,28.57
2019-01-08T07:09:49.640Z,25.27
2019-01-08T07:14:55.108Z,28.20
2019-01-08T07:20:00.582Z,26.50
2019-01-08T07:25:06.630Z,21.50
2019-01-08T07:30:14.710Z,22.83
2019-01-08T07:35:20.403Z,23.10
2019-01-08T07:40:25.956Z,23.80
2019-01-08T07:45:31.361Z,23.27
2019-01-08T07:50:36.406Z,23.90
2019-01-08T07:55:41.647Z,25.53
2019-01-08T08:00:50.177Z,28.73
2019-01-08T08:06:12.137Z,22.70
2019-01-08T08:11:17.104Z,28.03
2019-01-08T08:16:25.556Z,26.07
2019-01-08T08:21:30.772Z,26.03
2019-01-08T08:26:38.513Z,22.07
2019-01-08T08:31:44.106Z,23.80
2019-01-08T08:36:50.428Z,22.13
2019-01-08T08:41:56.338Z,22.43
2019-01-08T08:47:01.518Z,20.43
2019-01-08T08:52:06.590Z,21.90
2019-01-08T08:57:12.024Z,24.33
2019-01-08T09:02:17.342Z,25.47
2019-01-08T09:07:22.935Z,20.40
2019-01-08T09:12:28.078Z,20.03
2019-01-08T09:17:33.428Z,17.97
2019-01-08T09:22:38.592Z,21.00
2019-01-08T09:27:43.780Z,25.30
2019-01-08T09:32:48.976Z,27.03
2019-01-08T09:37:54.082Z,24.33
2019-01-08T09:42:59.576Z,18.33
2019-01-08T09:48:05.851Z,19.63
2019-01-08T09:53:49.190Z,22.30
2019-01-08T09:58:54.280Z,23.13
2019-01-08T10:03:59.741Z,21.20
2019-01-08T10:09:05.681Z,24.47
2019-01-08T10:14:10.990Z,22.50
2019-01-08T10:19:16.018Z,24.53
2019-01-08T10:24:21.238Z,19.73
2019-01-08T10:29:26.182Z,20.73
2019-01-08T10:34:32.368Z,18.37
2019-01-08T10:39:37.424Z,20.17
2019-01-08T10:44:42.424Z,20.73
2019-01-08T10:49:47.460Z,20.30
2019-01-08T10:54:52.478Z,20.40
2019-01-08T10:59:57.489Z,21.10
2019-01-08T11:05:02.614Z,23.17
2019-01-08T11:10:08.398Z,19.20
2019-01-08T11:15:13.804Z,17.97
2019-01-08T11:20:19.751Z,22.40
2019-01-08T11:25:25.233Z,21.97
2019-01-08T11:30:30.249Z,24.27
2019-01-08T11:35:42.350Z,20.23
2019-01-08T11:40:47.082Z,20.57
2019-01-08T11:45:52.254Z,21.00
2019-01-08T11:50:57.304Z,20.80
2019-01-08T11:56:02.379Z,19.00
2019-01-08T12:01:07.977Z,18.33
2019-01-08T12:06:12.978Z,19.27
2019-01-08T12:11:19.864Z,17.17
2019-01-08T12:16:24.994Z,18.93
2019-01-08T12:21:30.123Z,19.30
2019-01-08T12:26:35.333Z,21.83
2019-01-08T12:31:40.492Z,22.30
2019-01-08T12:36:46.088Z,22.40
2019-01-08T12:41:51.289Z,23.80
2019-01-08T12:46:56.336Z,23.67
2019-01-08T12:52:01.646Z,23.73
2019-01-08T12:57:06.818Z,26.70
2019-01-08T13:02:14.834Z,21.03
2019-01-08T13:07:27.858Z,23.07
2019-01-08T13:12:33.003Z,20.77
2019-01-08T13:17:38.402Z,22.50
2019-01-08T13:22:43.530Z,27.37
2019-01-08T13:27:49.224Z,26.70
2019-01-08T13:32:54.449Z,23.00
2019-01-08T13:38:00.978Z,22.53
2019-01-08T13:43:07.313Z,20.00
2019-01-08T13:48:12.524Z,23.30
2019-01-08T13:53:18.948Z,23.13
2019-01-08T13:58:24.282Z,21.63
2019-01-08T14:03:31.210Z,22.83
2019-01-08T14:08:36.335Z,25.60
2019-01-08T14:13:42.342Z,28.80
2019-01-08T14:18:48.535Z,26.47
2019-01-08T14:23:54.623Z,24.83
2019-01-08T14:29:00.622Z,29.53
2019-01-08T14:34:05.776Z,26.60
2019-01-08T14:39:11.108Z,27.43
2019-01-08T14:44:21.192Z,29.97
2019-01-08T14:49:26.739Z,23.70
2019-01-08T14:54:32.532Z,24.03
2019-01-08T14:59:37.850Z,21.20
2019-01-08T15:04:42.953Z,24.67
2019-01-08T15:09:48.200Z,23.67
2019-01-08T15:14:53.351Z,20.83
2019-01-08T15:19:58.544Z,21.90
2019-01-08T15:25:03.872Z,20.10
2019-01-08T15:30:10.629Z,21.70
2019-01-08T15:35:15.882Z,21.63
2019-01-08T15:40:21.065Z,19.83
2019-01-08T15:45:26.325Z,19.13
2019-01-08T15:50:31.607Z,18.47
2019-01-08T15:55:36.742Z,20.33
2019-01-08T16:00:42.019Z,20.93
2019-01-08T16:05:47.392Z,23.63
2019-01-08T16:10:52.450Z,26.07
2019-01-08T16:15:57.621Z,27.20
2019-01-08T16:21:02.922Z,24.20
2019-01-08T16:26:08.058Z,24.07
2019-01-08T16:31:13.345Z,25.10
2019-01-08T16:36:18.473Z,29.67
2019-01-08T16:41:23.525Z,23.07
2019-01-08T16:46:28.557Z,21.27
2019-01-08T16:51:34.226Z,21.20
2019-01-08T16:56:54.675Z,21.37
2019-01-08T17:02:00.246Z,21.27
2019-01-08T17:07:05.728Z,18.37
2019-01-08T17:12:10.963Z,23.17
2019-01-08T17:17:16.016Z,22.83
2019-01-08T17:22:21.568Z,23.13
2019-01-08T17:27:26.892Z,22.80
2019-01-08T17:32:33.538Z,22.40
2019-01-08T17:37:39.354Z,26.17
2019-01-08T17:42:44.654Z,25.40
2019-01-08T17:47:50.099Z,28.63
2019-01-08T17:52:55.713Z,25.73
2019-01-08T17:58:47.977Z,29.07
2019-01-08T18:03:53.164Z,25.93
2019-01-08T18:09:00.009Z,27.73
2019-01-08T18:14:05.373Z,21.27
2019-01-08T18:19:11.285Z,21.50
2019-01-08T18:24:17.257Z,19.37
2019-01-08T18:29:22.699Z,22.47
2019-01-08T18:34:28.425Z,23.13
2019-01-08T18:39:34.026Z,23.60
2019-01-08T18:44:39.413Z,20.13
2019-01-08T18:49:47.263Z,21.30
2019-01-08T18:54:52.554Z,26.87
2019-01-08T18:59:57.734Z,27.83
2019-01-08T19:05:02.777Z,26.47
2019-01-08T19:10:12.620Z,31.90
2019-01-08T19:15:18.057Z,33.07
2019-01-08T19:20:23.538Z,39.27
2019-01-08T19:25:28.719Z,32.77
2019-01-08T19:30:33.932Z,34.43
2019-01-08T19:35:38.979Z,30.63
2019-01-08T19:40:44.041Z,32.93
2019-01-08T19:45:49.374Z,33.33
2019-01-08T19:50:54.801Z,34.97
2019-01-08T19:55:59.906Z,37.50
2019-01-08T20:01:04.942Z,33.93
2019-01-08T20:06:19.647Z,32.13
2019-01-08T20:11:24.948Z,36.03
2019-01-08T20:16:30.605Z,37.83
2019-01-08T20:21:35.773Z,35.30
2019-01-08T20:26:41.135Z,38.80
2019-01-08T20:31:46.603Z,33.07
2019-01-08T20:36:52.116Z,37.20
2019-01-08T20:41:57.496Z,38.30
2019-01-08T20:47:02.645Z,36.20
2019-01-08T20:52:08.274Z,38.27
2019-01-08T20:57:13.455Z,37.13
2019-01-08T21:02:18.761Z,34.47
2019-01-08T21:07:24.000Z,31.57
2019-01-08T21:12:29.536Z,38.27
2019-01-08T21:17:45.058Z,35.63
2019-01-08T21:22:50.308Z,33.87
2019-01-08T21:27:55.440Z,33.17
2019-01-08T21:33:00.607Z,30.63
2019-01-08T21:38:05.944Z,35.20
2019-01-08T21:43:11.312Z,37.43
2019-01-08T21:48:16.342Z,40.20
2019-01-08T21:53:22.034Z,38.00
2019-01-08T21:58:27.195Z,38.93
2019-01-08T22:03:32.491Z,38.90
2019-01-08T22:08:37.564Z,39.87
2019-01-08T22:13:43.416Z,36.93
2019-01-08T22:18:48.610Z,34.83
2019-01-08T22:23:53.814Z,37.07
2019-01-08T22:28:58.957Z,36.77
2019-01-08T22:34:10.172Z,30.80
2019-01-08T22:39:15.312Z,39.83
2019-01-08T22:44:20.383Z,39.00
2019-01-08T22:49:25.904Z,37.27
2019-01-08T22:54:31.378Z,37.23
2019-01-08T22:59:36.765Z,37.20
2019-01-08T23:04:41.772Z,32.13
2019-01-08T23:09:46.846Z,32.47
2019-01-08T23:14:52.137Z,32.53
2019-01-08T23:19:57.166Z,31.93
2019-01-08T23:25:02.242Z,31.57
2019-01-08T23:30:07.562Z,32.93
2019-01-08T23:35:19.491Z,35.20
2019-01-08T23:40:20.656Z,32.30
2019-01-08T23:45:25.746Z,38.23
2019-01-08T23:50:30.819Z,38.60
2019-01-08T23:55:40.257Z,38.23
